sensor_id;sensor_type;location;lat;lon;timestamp;P1;durP1;ratioP1;P2;durP2;ratioP2
16430;SDS011;8325;49.284;7.238;2023-03-04T05:00:32;36.90;;;15.00;;
16430;SDS011;8325;49.284;7.238;2023-03-04T05:04:44;41.90;;;16.97;;
16430;SDS011;8325;49.284;7.238;2023-03-04T05:08:56;38.77;;;16.37;;
16430;SDS011;8325;49.284;7.238;2023-03-04T05:13:08;37.10;;;16.63;;
16430;SDS011;8325;49.284;7.238;2023-03-04T05:17:19;42.13;;;16.53;;
16430;SDS011;8325;49.284;7.238;2023-03-04T05:21:31;39.80;;;16.07;;
16430;SDS011;8325;49.284;7.238;2023-03-04T05:25:43;41.30;;;16.97;;
16430;SDS011;8325;49.284;7.238;2023-03-04T05:29:57;39.13;;;15.77;;
16430;SDS011;8325;49.284;7.238;2023-03-04T05:34:12;43.33;;;16.47;;
16430;SDS011;8325;49.284;7.238;2023-03-04T05:38:24;37.43;;;15.47;;
16430;SDS011;8325;49.284;7.238;2023-03-04T05:42:36;43.97;;;16.50;;
16430;SDS011;8325;49.284;7.238;2023-03-04T05:46:48;38.43;;;15.47;;
16430;SDS011;8325;49.284;7.238;2023-03-04T05:51:00;40.27;;;16.20;;
16430;SDS011;8325;49.284;7.238;2023-03-04T05:55:12;39.93;;;14.77;;
16430;SDS011;8325;49.284;7.238;2023-03-04T05:59:24;37.97;;;16.20;;
16430;SDS011;8325;49.284;7.238;2023-03-04T06:03:36;40.03;;;15.60;;
16430;SDS011;8325;49.284;7.238;2023-03-04T06:07:48;41.17;;;16.30;;
16430;SDS011;8325;49.284;7.238;2023-03-04T06:12:00;37.67;;;16.20;;
16430;SDS011;8325;49.284;7.238;2023-03-04T06:16:12;34.23;;;15.07;;
16430;SDS011;8325;49.284;7.238;2023-03-04T06:20:24;42.90;;;17.07;;
16430;SDS011;8325;49.284;7.238;2023-03-04T06:24:36;39.23;;;17.83;;
16430;SDS011;8325;49.284;7.238;2023-03-04T06:28:48;39.30;;;16.47;;
16430;SDS011;8325;49.284;7.238;2023-03-04T06:32:59;39.67;;;16.93;;
16430;SDS011;8325;49.284;7.238;2023-03-04T06:37:11;45.00;;;18.37;;
16430;SDS011;8325;49.284;7.238;2023-03-04T06:41:23;41.90;;;17.53;;
16430;SDS011;8325;49.284;7.238;2023-03-04T06:45:40;48.00;;;19.77;;
16430;SDS011;8325;49.284;7.238;2023-03-04T06:49:52;50.37;;;20.60;;
16430;SDS011;8325;49.284;7.238;2023-03-04T06:54:06;46.37;;;20.13;;
16430;SDS011;8325;49.284;7.238;2023-03-04T06:58:18;52.67;;;20.83;;
16430;SDS011;8325;49.284;7.238;2023-03-04T07:02:34;47.37;;;20.13;;
16430;SDS011;8325;49.284;7.238;2023-03-04T07:06:49;46.77;;;19.03;;
16430;SDS011;8325;49.284;7.238;2023-03-04T07:11:01;43.73;;;18.60;;
16430;SDS011;8325;49.284;7.238;2023-03-04T07:15:14;46.00;;;18.10;;
16430;SDS011;8325;49.284;7.238;2023-03-04T07:19:26;48.07;;;19.40;;
16430;SDS011;8325;49.284;7.238;2023-03-04T07:23:37;46.27;;;17.77;;
16430;SDS011;8325;49.284;7.238;2023-03-04T07:27:49;47.43;;;19.03;;
16430;SDS011;8325;49.284;7.238;2023-03-04T07:32:01;46.93;;;19.37;;
16430;SDS011;8325;49.284;7.238;2023-03-04T07:36:13;41.53;;;18.97;;
16430;SDS011;8325;49.284;7.238;2023-03-04T07:40:27;43.87;;;18.43;;
16430;SDS011;8325;49.284;7.238;2023-03-04T07:44:39;50.60;;;20.57;;
16430;SDS011;8325;49.284;7.238;2023-03-04T07:48:51;86.63;;;36.83;;
16430;SDS011;8325;49.284;7.238;2023-03-04T07:53:02;75.87;;;33.13;;
16430;SDS011;8325;49.284;7.238;2023-03-04T07:57:14;74.80;;;32.73;;
16430;SDS011;8325;49.284;7.238;2023-03-04T08:01:27;68.20;;;30.77;;
16430;SDS011;8325;49.284;7.238;2023-03-04T08:05:43;62.77;;;27.87;;
16430;SDS011;8325;49.284;7.238;2023-03-04T08:09:55;49.50;;;20.93;;
16430;SDS011;8325;49.284;7.238;2023-03-04T08:14:07;52.47;;;21.70;;
16430;SDS011;8325;49.284;7.238;2023-03-04T08:18:20;56.27;;;22.43;;
16430;SDS011;8325;49.284;7.238;2023-03-04T08:22:32;47.20;;;20.23;;
16430;SDS011;8325;49.284;7.238;2023-03-04T08:26:45;45.70;;;19.50;;
16430;SDS011;8325;49.284;7.238;2023-03-04T08:30:58;53.23;;;22.07;;
16430;SDS011;8325;49.284;7.238;2023-03-04T08:35:10;55.17;;;21.77;;
16430;SDS011;8325;49.284;7.238;2023-03-04T08:39:21;47.77;;;21.83;;
16430;SDS011;8325;49.284;7.238;2023-03-04T08:43:33;45.57;;;20.50;;
16430;SDS011;8325;49.284;7.238;2023-03-04T08:47:45;50.13;;;21.83;;
16430;SDS011;8325;49.284;7.238;2023-03-04T08:51:57;45.40;;;21.50;;
16430;SDS011;8325;49.284;7.238;2023-03-04T08:56:08;48.93;;;22.00;;
16430;SDS011;8325;49.284;7.238;2023-03-04T09:00:21;49.63;;;21.87;;
16430;SDS011;8325;49.284;7.238;2023-03-04T09:04:34;50.60;;;23.53;;
16430;SDS011;8325;49.284;7.238;2023-03-04T09:08:45;51.97;;;22.63;;
16430;SDS011;8325;49.284;7.238;2023-03-04T09:12:57;51.10;;;22.80;;
16430;SDS011;8325;49.284;7.238;2023-03-04T09:17:09;50.50;;;22.33;;
16430;SDS011;8325;49.284;7.238;2023-03-04T09:21:21;53.33;;;22.87;;
16430;SDS011;8325;49.284;7.238;2023-03-04T09:25:33;53.00;;;24.67;;
16430;SDS011;8325;49.284;7.238;2023-03-04T09:29:44;39.87;;;20.43;;
16430;SDS011;8325;49.284;7.238;2023-03-04T09:33:56;47.33;;;22.80;;
16430;SDS011;8325;49.284;7.238;2023-03-04T09:38:09;49.37;;;22.83;;
16430;SDS011;8325;49.284;7.238;2023-03-04T09:42:25;43.80;;;21.83;;
16430;SDS011;8325;49.284;7.238;2023-03-04T09:46:43;43.33;;;19.80;;
16430;SDS011;8325;49.284;7.238;2023-03-04T09:51:18;41.23;;;19.27;;
16430;SDS011;8325;49.284;7.238;2023-03-04T09:55:38;42.00;;;20.27;;
16430;SDS011;8325;49.284;7.238;2023-03-04T10:04:29;34.80;;;17.90;;
16430;SDS011;8325;49.284;7.238;2023-03-04T10:18:03;35.20;;;17.17;;
16430;SDS011;8325;49.284;7.238;2023-03-04T10:22:32;34.13;;;15.95;;
16430;SDS011;8325;49.284;7.238;2023-03-04T10:26:48;29.80;;;15.30;;
16430;SDS011;8325;49.284;7.238;2023-03-04T10:35:19;30.03;;;14.57;;
16430;SDS011;8325;49.284;7.238;2023-03-04T10:39:40;25.73;;;13.70;;
16430;SDS011;8325;49.284;7.238;2023-03-04T10:48:22;27.77;;;12.90;;
16430;SDS011;8325;49.284;7.238;2023-03-04T10:52:40;22.00;;;10.13;;
16430;SDS011;8325;49.284;7.238;2023-03-04T10:57:04;21.13;;;9.77;;
16430;SDS011;8325;49.284;7.238;2023-03-04T11:01:24;18.93;;;9.00;;
16430;SDS011;8325;49.284;7.238;2023-03-04T11:05:35;18.97;;;9.10;;
16430;SDS011;8325;49.284;7.238;2023-03-04T11:09:47;18.63;;;8.83;;
16430;SDS011;8325;49.284;7.238;2023-03-04T11:13:59;23.37;;;9.87;;
16430;SDS011;8325;49.284;7.238;2023-03-04T11:18:16;19.67;;;10.17;;
16430;SDS011;8325;49.284;7.238;2023-03-04T11:22:34;20.25;;;10.00;;
16430;SDS011;8325;49.284;7.238;2023-03-04T11:26:46;24.87;;;10.17;;
16430;SDS011;8325;49.284;7.238;2023-03-04T11:31:02;19.50;;;8.80;;
16430;SDS011;8325;49.284;7.238;2023-03-04T11:39:41;17.15;;;8.18;;
16430;SDS011;8325;49.284;7.238;2023-03-04T11:44:01;20.27;;;8.30;;
16430;SDS011;8325;49.284;7.238;2023-03-04T11:48:30;17.27;;;8.32;;
16430;SDS011;8325;49.284;7.238;2023-03-04T11:53:07;15.13;;;7.47;;
16430;SDS011;8325;49.284;7.238;2023-03-04T11:57:47;19.77;;;8.33;;
16430;SDS011;8325;49.284;7.238;2023-03-04T12:02:22;17.83;;;8.30;;
16430;SDS011;8325;49.284;7.238;2023-03-04T12:11:13;17.67;;;7.55;;
16430;SDS011;8325;49.284;7.238;2023-03-04T12:25:32;20.88;;;8.13;;
16430;SDS011;8325;49.284;7.238;2023-03-04T12:44:09;18.33;;;7.90;;
16430;SDS011;8325;49.284;7.238;2023-03-04T12:48:31;17.00;;;7.88;;
16430;SDS011;8325;49.284;7.238;2023-03-04T12:52:57;17.83;;;7.70;;
16430;SDS011;8325;49.284;7.238;2023-03-04T12:57:22;19.15;;;8.48;;
16430;SDS011;8325;49.284;7.238;2023-03-04T13:01:36;20.92;;;8.63;;
16430;SDS011;8325;49.284;7.238;2023-03-04T13:10:21;16.63;;;7.68;;
16430;SDS011;8325;49.284;7.238;2023-03-04T13:14:34;17.67;;;8.10;;
16430;SDS011;8325;49.284;7.238;2023-03-04T13:18:45;18.77;;;8.43;;
16430;SDS011;8325;49.284;7.238;2023-03-04T13:32:03;22.25;;;8.70;;
16430;SDS011;8325;49.284;7.238;2023-03-04T13:36:25;23.52;;;9.32;;
16430;SDS011;8325;49.284;7.238;2023-03-04T13:40:37;23.73;;;9.05;;
16430;SDS011;8325;49.284;7.238;2023-03-04T13:44:54;23.95;;;9.45;;
16430;SDS011;8325;49.284;7.238;2023-03-04T13:49:16;21.88;;;9.32;;
16430;SDS011;8325;49.284;7.238;2023-03-04T13:53:37;19.23;;;9.07;;
16430;SDS011;8325;49.284;7.238;2023-03-04T13:57:50;24.30;;;8.68;;
16430;SDS011;8325;49.284;7.238;2023-03-04T14:02:12;18.33;;;8.25;;
16430;SDS011;8325;49.284;7.238;2023-03-04T14:06:28;22.23;;;8.82;;
16430;SDS011;8325;49.284;7.238;2023-03-04T14:10:41;20.98;;;8.40;;
16430;SDS011;8325;49.284;7.238;2023-03-04T14:14:54;21.33;;;8.55;;
16430;SDS011;8325;49.284;7.238;2023-03-04T14:19:12;24.02;;;8.57;;
16430;SDS011;8325;49.284;7.238;2023-03-04T14:23:31;19.27;;;7.95;;
16430;SDS011;8325;49.284;7.238;2023-03-04T14:27:45;18.27;;;8.75;;
16430;SDS011;8325;49.284;7.238;2023-03-04T14:31:57;16.85;;;7.40;;
16430;SDS011;8325;49.284;7.238;2023-03-04T14:36:13;20.27;;;7.07;;
16430;SDS011;8325;49.284;7.238;2023-03-04T14:40:47;14.98;;;6.57;;
16430;SDS011;8325;49.284;7.238;2023-03-04T14:45:03;16.67;;;7.57;;
16430;SDS011;8325;49.284;7.238;2023-03-04T14:49:15;16.38;;;7.05;;
16430;SDS011;8325;49.284;7.238;2023-03-04T14:53:28;20.77;;;7.25;;
16430;SDS011;8325;49.284;7.238;2023-03-04T14:57:42;14.32;;;6.53;;
16430;SDS011;8325;49.284;7.238;2023-03-04T15:02:42;16.85;;;6.68;;
16430;SDS011;8325;49.284;7.238;2023-03-04T15:06:51;12.35;;;5.80;;
16430;SDS011;8325;49.284;7.238;2023-03-04T15:11:04;12.93;;;5.50;;
16430;SDS011;8325;49.284;7.238;2023-03-04T15:20:00;13.83;;;5.33;;
16430;SDS011;8325;49.284;7.238;2023-03-04T15:24:12;8.77;;;4.25;;
16430;SDS011;8325;49.284;7.238;2023-03-04T15:28:25;6.75;;;4.32;;
16430;SDS011;8325;49.284;7.238;2023-03-04T15:32:42;10.82;;;4.30;;
16430;SDS011;8325;49.284;7.238;2023-03-04T15:36:53;9.93;;;4.47;;
16430;SDS011;8325;49.284;7.238;2023-03-04T15:41:08;15.02;;;6.15;;
16430;SDS011;8325;49.284;7.238;2023-03-04T15:45:24;12.27;;;6.35;;
16430;SDS011;8325;49.284;7.238;2023-03-04T15:49:37;11.00;;;5.53;;
16430;SDS011;8325;49.284;7.238;2023-03-04T15:53:54;7.55;;;4.35;;
16430;SDS011;8325;49.284;7.238;2023-03-04T15:58:08;8.00;;;4.55;;
16430;SDS011;8325;49.284;7.238;2023-03-04T16:02:22;10.75;;;4.95;;
16430;SDS011;8325;49.284;7.238;2023-03-04T16:06:35;10.38;;;6.43;;
16430;SDS011;8325;49.284;7.238;2023-03-04T16:10:46;8.65;;;4.53;;
16430;SDS011;8325;49.284;7.238;2023-03-04T16:14:58;8.88;;;4.60;;
16430;SDS011;8325;49.284;7.238;2023-03-04T16:19:10;12.07;;;4.90;;
16430;SDS011;8325;49.284;7.238;2023-03-04T16:23:22;12.15;;;4.80;;
16430;SDS011;8325;49.284;7.238;2023-03-04T16:27:35;12.20;;;4.57;;
16430;SDS011;8325;49.284;7.238;2023-03-04T16:31:46;12.48;;;5.70;;
16430;SDS011;8325;49.284;7.238;2023-03-04T16:35:58;8.43;;;5.05;;
16430;SDS011;8325;49.284;7.238;2023-03-04T16:40:11;16.02;;;5.57;;
16430;SDS011;8325;49.284;7.238;2023-03-04T16:44:25;10.77;;;4.75;;
16430;SDS011;8325;49.284;7.238;2023-03-04T16:48:36;8.05;;;4.63;;
16430;SDS011;8325;49.284;7.238;2023-03-04T16:57:30;10.77;;;4.72;;
16430;SDS011;8325;49.284;7.238;2023-03-04T17:01:42;10.48;;;5.00;;
16430;SDS011;8325;49.284;7.238;2023-03-04T17:05:54;10.57;;;5.13;;
16430;SDS011;8325;49.284;7.238;2023-03-04T17:10:05;11.10;;;5.18;;
16430;SDS011;8325;49.284;7.238;2023-03-04T17:14:17;15.25;;;6.63;;
16430;SDS011;8325;49.284;7.238;2023-03-04T17:18:29;11.73;;;6.88;;
16430;SDS011;8325;49.284;7.238;2023-03-04T17:22:40;11.05;;;6.38;;
16430;SDS011;8325;49.284;7.238;2023-03-04T17:26:52;11.35;;;6.80;;
16430;SDS011;8325;49.284;7.238;2023-03-04T17:31:10;10.73;;;5.15;;
16430;SDS011;8325;49.284;7.238;2023-03-04T17:35:24;11.00;;;6.07;;
16430;SDS011;8325;49.284;7.238;2023-03-04T17:39:36;10.70;;;6.63;;
16430;SDS011;8325;49.284;7.238;2023-03-04T17:43:48;12.63;;;5.57;;
16430;SDS011;8325;49.284;7.238;2023-03-04T17:48:01;26.58;;;11.88;;
16430;SDS011;8325;49.284;7.238;2023-03-04T17:52:12;17.65;;;7.70;;
16430;SDS011;8325;49.284;7.238;2023-03-04T17:56:24;18.65;;;9.35;;
16430;SDS011;8325;49.284;7.238;2023-03-04T18:00:40;19.95;;;12.18;;
16430;SDS011;8325;49.284;7.238;2023-03-04T18:04:51;18.25;;;11.88;;
16430;SDS011;8325;49.284;7.238;2023-03-04T18:09:03;12.68;;;7.85;;
16430;SDS011;8325;49.284;7.238;2023-03-04T18:13:15;12.98;;;6.72;;
16430;SDS011;8325;49.284;7.238;2023-03-04T18:17:27;14.13;;;8.52;;
16430;SDS011;8325;49.284;7.238;2023-03-04T18:21:38;15.23;;;9.05;;
16430;SDS011;8325;49.284;7.238;2023-03-04T18:25:50;11.80;;;6.50;;
16430;SDS011;8325;49.284;7.238;2023-03-04T18:30:01;10.27;;;5.97;;
16430;SDS011;8325;49.284;7.238;2023-03-04T18:34:13;9.80;;;5.47;;
16430;SDS011;8325;49.284;7.238;2023-03-04T18:38:24;10.65;;;5.75;;
16430;SDS011;8325;49.284;7.238;2023-03-04T18:42:36;12.48;;;6.45;;
16430;SDS011;8325;49.284;7.238;2023-03-04T18:46:49;12.52;;;7.30;;
16430;SDS011;8325;49.284;7.238;2023-03-04T18:51:03;11.85;;;7.47;;
16430;SDS011;8325;49.284;7.238;2023-03-04T18:55:15;13.38;;;6.95;;
16430;SDS011;8325;49.284;7.238;2023-03-04T18:59:29;12.25;;;7.00;;
16430;SDS011;8325;49.284;7.238;2023-03-04T19:03:51;15.00;;;6.47;;
16430;SDS011;8325;49.284;7.238;2023-03-04T19:08:04;11.40;;;5.93;;
16430;SDS011;8325;49.284;7.238;2023-03-04T19:12:16;9.13;;;5.70;;
16430;SDS011;8325;49.284;7.238;2023-03-04T19:16:28;11.32;;;5.55;;
16430;SDS011;8325;49.284;7.238;2023-03-04T19:20:40;17.02;;;8.10;;
16430;SDS011;8325;49.284;7.238;2023-03-04T19:24:52;21.30;;;8.90;;
16430;SDS011;8325;49.284;7.238;2023-03-04T19:29:04;12.30;;;7.75;;
16430;SDS011;8325;49.284;7.238;2023-03-04T19:33:17;16.73;;;8.27;;
16430;SDS011;8325;49.284;7.238;2023-03-04T19:37:29;14.80;;;8.27;;
16430;SDS011;8325;49.284;7.238;2023-03-04T19:41:41;10.73;;;6.05;;
16430;SDS011;8325;49.284;7.238;2023-03-04T19:45:56;13.93;;;7.82;;
16430;SDS011;8325;49.284;7.238;2023-03-04T19:50:08;16.40;;;9.55;;
16430;SDS011;8325;49.284;7.238;2023-03-04T19:54:21;10.23;;;6.57;;
16430;SDS011;8325;49.284;7.238;2023-03-04T19:58:32;15.53;;;6.17;;
16430;SDS011;8325;49.284;7.238;2023-03-04T20:02:44;11.13;;;5.88;;
16430;SDS011;8325;49.284;7.238;2023-03-04T20:06:57;10.68;;;5.90;;
16430;SDS011;8325;49.284;7.238;2023-03-04T20:11:12;12.23;;;6.50;;
16430;SDS011;8325;49.284;7.238;2023-03-04T20:15:24;15.40;;;8.17;;
16430;SDS011;8325;49.284;7.238;2023-03-04T20:19:35;11.93;;;6.70;;
16430;SDS011;8325;49.284;7.238;2023-03-04T20:23:47;14.07;;;7.40;;
16430;SDS011;8325;49.284;7.238;2023-03-04T20:27:59;12.85;;;7.03;;
16430;SDS011;8325;49.284;7.238;2023-03-04T20:32:10;9.82;;;6.05;;
16430;SDS011;8325;49.284;7.238;2023-03-04T20:36:22;16.35;;;8.32;;
16430;SDS011;8325;49.284;7.238;2023-03-04T20:40:36;14.00;;;7.33;;
16430;SDS011;8325;49.284;7.238;2023-03-04T20:44:48;13.93;;;7.33;;
16430;SDS011;8325;49.284;7.238;2023-03-04T20:49:00;27.60;;;12.33;;
16430;SDS011;8325;49.284;7.238;2023-03-04T20:53:14;19.87;;;10.70;;
16430;SDS011;8325;49.284;7.238;2023-03-04T20:57:25;20.37;;;8.93;;
16430;SDS011;8325;49.284;7.238;2023-03-04T21:01:38;28.65;;;12.57;;
16430;SDS011;8325;49.284;7.238;2023-03-04T21:05:51;13.23;;;7.90;;
16430;SDS011;8325;49.284;7.238;2023-03-04T21:10:03;15.83;;;8.27;;
16430;SDS011;8325;49.284;7.238;2023-03-04T21:18:26;15.07;;;8.20;;
16430;SDS011;8325;49.284;7.238;2023-03-04T21:22:39;20.67;;;11.33;;
16430;SDS011;8325;49.284;7.238;2023-03-04T21:26:51;14.60;;;7.20;;
16430;SDS011;8325;49.284;7.238;2023-03-04T21:31:03;16.07;;;8.30;;
16430;SDS011;8325;49.284;7.238;2023-03-04T21:35:14;12.97;;;7.10;;
16430;SDS011;8325;49.284;7.238;2023-03-04T21:39:26;12.97;;;7.13;;
16430;SDS011;8325;49.284;7.238;2023-03-04T21:43:38;37.40;;;18.20;;
16430;SDS011;8325;49.284;7.238;2023-03-04T21:47:49;32.87;;;15.70;;
16430;SDS011;8325;49.284;7.238;2023-03-04T21:52:01;26.10;;;13.30;;
16430;SDS011;8325;49.284;7.238;2023-03-04T21:56:14;16.60;;;7.50;;
16430;SDS011;8325;49.284;7.238;2023-03-04T22:00:26;14.17;;;8.00;;
16430;SDS011;8325;49.284;7.238;2023-03-04T22:04:37;14.50;;;7.20;;
16430;SDS011;8325;49.284;7.238;2023-03-04T22:08:51;11.90;;;6.40;;
16430;SDS011;8325;49.284;7.238;2023-03-04T22:13:05;14.00;;;6.70;;
16430;SDS011;8325;49.284;7.238;2023-03-04T22:17:19;14.05;;;8.10;;
16430;SDS011;8325;49.284;7.238;2023-03-04T22:21:30;16.65;;;7.72;;
16430;SDS011;8325;49.284;7.238;2023-03-04T22:25:42;19.17;;;9.70;;
16430;SDS011;8325;49.284;7.238;2023-03-04T22:29:54;17.87;;;8.40;;
